createdAt,value
2022-08-08T00:02:31.170Z,98945.63
2022-08-08T00:07:46.788Z,98940.44
2022-08-08T00:12:57.098Z,98941.16
2022-08-08T00:18:09.673Z,98935.41
2022-08-08T00:23:23.290Z,98945.97
2022-08-08T00:28:40.268Z,98945.75
2022-08-08T00:34:20.007Z,98946.16
2022-08-08T00:41:12.383Z,98940.13
2022-08-08T00:45:32.550Z,98930.69
2022-08-08T00:51:07.900Z,98939.25
2022-08-08T00:56:52.243Z,98940.28
2022-08-08T01:03:59.822Z,98944.53
2022-08-08T01:07:57.292Z,98954.78
2022-08-08T01:13:52.940Z,98949.72
2022-08-08T01:19:52.179Z,98939.22
2022-08-08T01:25:40.994Z,98953.50
2022-08-08T01:32:05.754Z,98947.94
2022-08-08T01:37:56.413Z,98946.56
2022-08-08T01:43:08.239Z,98944.03
2022-08-08T01:48:30.666Z,98952.69
2022-08-08T01:55:16.480Z,98938.81
2022-08-08T02:00:01.714Z,98949.19
2022-08-08T02:05:55.513Z,98942.06
2022-08-08T02:11:08.257Z,98938.84
2022-08-08T02:16:38.593Z,98933.25
2022-08-08T02:22:06.812Z,98939.53
2022-08-08T02:27:20.808Z,98939.88
2022-08-08T02:32:50.115Z,98942.09
2022-08-08T02:38:30.121Z,98942.41
2022-08-08T02:44:39.101Z,98956.44
2022-08-08T02:50:17.665Z,98955.72
2022-08-08T02:56:10.785Z,98956.72
2022-08-08T03:02:02.855Z,98961.25
2022-08-08T03:07:58.432Z,98956.69
2022-08-08T03:16:04.029Z,98960.53
2022-08-08T03:19:34.543Z,98964.72
2022-08-08T03:24:46.578Z,98975.19
2022-08-08T03:30:02.176Z,98975.84
2022-08-08T03:35:10.582Z,98977.97
2022-08-08T03:40:29.707Z,98978.94
2022-08-08T03:46:07.018Z,98985.84
2022-08-08T03:51:09.945Z,98990.88
2022-08-08T03:56:31.753Z,98997.63
2022-08-08T04:02:22.927Z,98983.19
2022-08-08T04:07:04.173Z,98990.78
2022-08-08T04:12:16.688Z,98992.94
2022-08-08T04:17:45.812Z,98993.91
2022-08-08T04:22:51.366Z,99004.16
2022-08-08T04:28:35.217Z,99002.78
2022-08-08T04:33:27.047Z,99009.34
2022-08-08T04:38:32.539Z,99009.50
2022-08-08T04:43:45.395Z,99020.47
2022-08-08T04:48:57.300Z,99025.53
2022-08-08T04:54:40.110Z,99023.69
2022-08-08T04:59:31.681Z,99027.94
2022-08-08T05:04:48.267Z,99026.63
2022-08-08T05:09:54.299Z,99032.56
2022-08-08T05:15:05.212Z,99036.31
2022-08-08T05:20:15.093Z,99030.31
2022-08-08T05:25:21.691Z,99041.47
2022-08-08T05:30:29.886Z,99041.84
2022-08-08T05:35:39.708Z,99050.19
2022-08-08T05:40:50.652Z,99055.50
2022-08-08T05:46:04.294Z,99051.13
2022-08-08T05:51:16.334Z,99063.69
2022-08-08T05:56:27.934Z,99068.00
2022-08-08T06:01:55.952Z,99069.56
2022-08-08T06:07:04.474Z,99068.81
2022-08-08T06:12:14.274Z,99077.66
2022-08-08T06:17:50.144Z,99078.59
2022-08-08T06:22:52.533Z,99080.38
2022-08-08T06:28:07.873Z,99073.97
2022-08-08T06:33:18.266Z,99076.53
2022-08-08T06:38:49.155Z,99075.50
2022-08-08T06:44:00.722Z,99078.91
2022-08-08T06:49:14.329Z,99086.72
2022-08-08T06:54:20.459Z,99094.63
2022-08-08T06:59:25.759Z,99092.53
2022-08-08T07:04:52.113Z,99089.94
2022-08-08T07:10:08.189Z,99099.97
2022-08-08T07:15:32.050Z,99102.03
2022-08-08T07:20:51.787Z,99095.75
2022-08-08T07:26:03.434Z,99099.31
2022-08-08T07:31:10.159Z,99103.78
2022-08-08T07:36:20.026Z,99110.34
2022-08-08T07:41:28.342Z,99112.44
2022-08-08T07:46:53.854Z,99113.81
2022-08-08T07:52:03.479Z,99114.91
2022-08-08T07:57:21.803Z,99107.72
2022-08-08T08:02:41.635Z,99113.72
2022-08-08T08:07:57.253Z,99113.75
2022-08-08T08:13:42.749Z,99107.81
2022-08-08T08:19:00.367Z,99104.31
2022-08-08T08:24:13.902Z,99106.16
2022-08-08T08:29:21.657Z,99106.06
2022-08-08T08:34:32.796Z,99106.59
2022-08-08T08:40:00.938Z,99099.25
2022-08-08T08:45:22.718Z,99098.22
2022-08-08T08:50:41.248Z,99108.38
2022-08-08T08:55:53.903Z,99104.34
2022-08-08T09:01:09.259Z,99110.81
2022-08-08T09:06:26.331Z,99107.59
2022-08-08T09:11:47.791Z,99105.00
2022-08-08T09:17:11.553Z,99103.84
2022-08-08T09:22:26.774Z,99108.16
2022-08-08T09:27:55.787Z,99114.63
2022-08-08T09:33:54.124Z,99109.41
2022-08-08T09:38:51.960Z,99102.84
2022-08-08T09:44:15.441Z,99097.63
2022-08-08T09:49:42.556Z,99100.09
2022-08-08T09:54:53.156Z,99093.06
2022-08-08T10:05:31.112Z,99089.81
2022-08-08T10:10:41.665Z,99096.31
2022-08-08T10:16:01.119Z,99085.72
2022-08-08T10:21:25.106Z,99088.94
2022-08-08T10:26:57.071Z,99079.34
2022-08-08T10:32:16.438Z,99078.97
2022-08-08T10:37:30.343Z,99072.25
2022-08-08T10:42:39.238Z,99073.31
2022-08-08T10:47:56.752Z,99061.66
2022-08-08T10:53:12.755Z,99062.88
2022-08-08T10:58:18.067Z,99067.06
2022-08-08T11:03:52.374Z,99050.91
2022-08-08T11:09:09.564Z,99053.19
2022-08-08T11:14:25.309Z,99042.19
2022-08-08T11:19:38.626Z,99049.06
2022-08-08T11:24:45.747Z,99044.38
2022-08-08T11:30:20.585Z,99033.47
2022-08-08T11:35:29.379Z,99040.25
2022-08-08T11:40:48.482Z,99038.56
2022-08-08T11:46:13.973Z,99043.31
2022-08-08T11:51:30.239Z,99052.59
2022-08-08T11:56:44.335Z,99040.25
2022-08-08T12:02:30.999Z,99043.69
2022-08-08T12:07:49.673Z,99043.47
2022-08-08T12:13:05.993Z,99046.00
2022-08-08T12:18:21.710Z,99035.13
2022-08-08T12:23:42.955Z,99050.19
2022-08-08T12:29:02.859Z,99042.50
2022-08-08T12:34:09.192Z,99043.66
2022-08-08T12:39:17.016Z,99039.03
2022-08-08T12:44:32.567Z,99035.13
2022-08-08T13:35:24.849Z,99007.56
2022-08-08T13:41:00.517Z,99006.13
2022-08-08T13:52:37.681Z,99008.78
2022-08-08T13:58:07.625Z,99011.34
2022-08-08T14:03:52.997Z,99015.13
2022-08-08T14:09:24.755Z,99003.56
2022-08-08T14:15:03.151Z,99001.69
2022-08-08T14:20:38.937Z,98999.97
2022-08-08T14:25:54.007Z,98999.72
2022-08-08T14:31:20.409Z,99004.97
2022-08-08T14:36:53.621Z,98987.38
2022-08-08T14:42:17.075Z,98999.06
2022-08-08T14:47:37.880Z,99002.78
2022-08-08T14:53:10.203Z,99006.38
2022-08-08T14:58:30.497Z,99002.78
2022-08-08T15:03:53.683Z,98993.75
2022-08-08T15:09:24.906Z,98996.91
2022-08-08T15:14:43.295Z,98996.69
2022-08-08T15:20:02.163Z,98996.59
2022-08-08T15:25:18.068Z,98991.66
2022-08-08T15:30:37.078Z,98997.53
2022-08-08T15:35:48.434Z,98993.25
2022-08-08T15:41:02.552Z,98994.41
2022-08-08T15:46:18.273Z,98992.53
2022-08-08T15:51:36.627Z,98996.81
2022-08-08T15:56:48.365Z,98987.41
2022-08-08T16:02:00.657Z,98982.47
2022-08-08T16:07:15.958Z,98978.41
2022-08-08T16:13:05.465Z,98985.78
2022-08-08T16:18:06.608Z,98989.19
2022-08-08T16:23:32.941Z,98985.19
2022-08-08T16:28:57.151Z,98982.19
2022-08-08T16:34:09.548Z,98977.97
2022-08-08T16:40:00.958Z,98978.81
2022-08-08T16:45:11.404Z,98986.06
2022-08-08T16:50:31.084Z,98993.91
2022-08-08T16:56:00.421Z,98986.69
2022-08-08T17:01:16.785Z,98977.75
2022-08-08T17:06:36.258Z,98987.19
2022-08-08T17:11:56.682Z,98980.19
2022-08-08T17:17:41.372Z,98989.47
2022-08-08T17:28:34.299Z,98997.22
2022-08-08T17:34:37.499Z,98997.41
2022-08-08T17:39:45.828Z,99004.31
2022-08-08T17:44:51.146Z,99012.69
2022-08-08T17:50:04.142Z,99016.19
2022-08-08T17:56:05.190Z,99015.03
2022-08-08T18:00:59.917Z,99025.63
2022-08-08T18:06:19.910Z,99028.13
2022-08-08T18:11:37.064Z,99026.72
2022-08-08T18:16:57.380Z,99029.00
2022-08-08T18:22:37.504Z,99032.66
2022-08-08T18:27:47.991Z,99045.50
2022-08-08T18:32:58.506Z,99049.44
2022-08-08T18:38:29.621Z,99054.50
2022-08-08T18:43:43.346Z,99062.13
2022-08-08T18:48:54.283Z,99063.03
2022-08-08T18:54:21.839Z,99071.69
2022-08-08T18:59:40.873Z,99068.19
2022-08-08T19:04:48.991Z,99075.94
2022-08-08T19:10:14.152Z,99088.22
2022-08-08T19:15:33.717Z,99097.81
2022-08-08T19:20:55.902Z,99093.97
2022-08-08T19:26:29.489Z,99098.06
2022-08-08T19:31:50.546Z,99103.34
2022-08-08T19:43:04.348Z,99113.59
2022-08-08T19:48:28.898Z,99126.84
2022-08-08T19:53:53.204Z,99117.88
2022-08-08T19:59:01.047Z,99119.91
2022-08-08T20:04:26.792Z,99115.78
2022-08-08T20:09:45.047Z,99124.72
2022-08-08T20:16:00.509Z,99125.25
2022-08-08T20:21:14.422Z,99130.38
2022-08-08T20:26:27.548Z,99117.34
2022-08-08T20:32:02.677Z,99124.13
2022-08-08T20:37:13.310Z,99129.25
2022-08-08T20:42:28.986Z,99128.88
2022-08-08T20:47:46.025Z,99129.13
2022-08-08T20:53:33.319Z,99128.06
2022-08-08T20:58:47.588Z,99124.28
2022-08-08T21:03:55.643Z,99134.84
2022-08-08T21:09:05.788Z,99126.81
2022-08-08T21:14:13.688Z,99127.28
2022-08-08T21:19:19.680Z,99121.81
2022-08-08T21:24:32.867Z,99118.88
2022-08-08T21:30:03.809Z,99129.44
2022-08-08T21:36:17.625Z,99122.25
2022-08-08T21:40:32.967Z,99129.41
2022-08-08T21:47:59.398Z,99128.31
2022-08-08T21:51:10.226Z,99136.06
2022-08-08T21:56:29.514Z,99128.22
2022-08-08T22:01:51.937Z,99138.94
2022-08-08T22:07:03.018Z,99133.38
2022-08-08T22:12:09.812Z,99136.69
2022-08-08T22:17:19.230Z,99139.97
2022-08-08T22:22:28.646Z,99144.03
2022-08-08T22:28:00.570Z,99141.34
2022-08-08T22:33:02.309Z,99133.81
2022-08-08T22:38:14.395Z,99138.38
2022-08-08T22:43:23.242Z,99137.47
2022-08-08T22:48:30.958Z,99141.00
2022-08-08T22:54:31.288Z,99144.69
2022-08-08T22:59:01.061Z,99145.00
2022-08-08T23:04:12.658Z,99141.56
2022-08-08T23:09:17.664Z,99146.13
2022-08-08T23:14:25.605Z,99139.09
2022-08-08T23:19:33.442Z,99136.66
2022-08-08T23:24:41.457Z,99149.56
2022-08-08T23:29:55.221Z,99143.53
2022-08-08T23:35:08.064Z,99142.47
2022-08-08T23:40:22.195Z,99141.72
2022-08-08T23:49:05.627Z,99147.72
2022-08-08T23:50:57.049Z,99157.34
2022-08-08T23:56:02.566Z,99152.63
